PWSweather.com
Personal Weather Stations
Station Observations
KMAMEDFI2
Medfield, MA 02052

Medfield, MA 02052

Lat: 42.1900822, Lon: -71.3296889

Elevation: 138

Station Type: Rainwise WS MK-III

http://www.medfieldweather.com

Latest ConditionsUpdated 3:40:00 AM EDT Wednesday, Jul 23, 2014
Currently Today's Max Today's Min Today's Average
Temperature 70.0°F21.1°C 72.8°F22.7°C 70.0°F21.1°C 71.0°F21.7°C
Dew Point 66.6°F19.2°C 68.0°F20.0°C 66.5°F19.2°C 67.1°F19.5°C
Winds 0.4 mph NE0.6 kmh NE 2.0 mph S3.2 kmh S - 0.8 mph 1.3 kmh
Wind Gusts 2.6 mph4.2 kmh 7.8 mph12.6 kmh - -
Humidity 89% 89% 85% 88%
Pressure 29.94 in1013.9 mb 29.99 in1015.6 mb 29.94 in1013.9 mb -
Hour Temp Dew Point Humidity Winds Wind Gusts Pressure Precip Precip Rate Daily Precip Total
03:40 AM 70.0°F21.1°C 66.6°F19.2°C 89% 0.4 mph NE0.6 kmh NE 2.6 mph4.2 kmh 29.94 in1013.9 mb 0.00 in0.0 mm 0.00 in/hr0.0 mm/hr 0.00 in0.0 mm
03:30 AM 70.3°F21.3°C 66.5°F19.2°C 88% 0.8 mph WSW1.3 kmh WSW 2.6 mph4.2 kmh 29.94 in1013.9 mb 0.00 in0.0 mm 0.00 in/hr0.0 mm/hr 0.00 in0.0 mm
03:20 AM 70.4°F21.3°C 66.6°F19.2°C 88% 1.0 mph SSW1.6 kmh SSW 2.6 mph4.2 kmh 29.94 in1013.9 mb 0.00 in0.0 mm 0.00 in/hr0.0 mm/hr 0.00 in0.0 mm
03:10 AM 70.3°F21.3°C 66.5°F19.2°C 88% 0.9 mph WSW1.4 kmh WSW 2.6 mph4.2 kmh 29.94 in1013.9 mb 0.00 in0.0 mm 0.00 in/hr0.0 mm/hr 0.00 in0.0 mm
03:00 AM 70.3°F21.3°C 66.6°F19.2°C 88% 0.6 mph W1.0 kmh W 2.6 mph4.2 kmh 29.95 in1014.2 mb 0.00 in0.0 mm 0.00 in/hr0.0 mm/hr 0.00 in0.0 mm
02:50 AM 70.3°F21.3°C 66.5°F19.2°C 88% 1.0 mph S1.6 kmh S 1.3 mph2.1 kmh 29.95 in1014.2 mb 0.00 in0.0 mm 0.00 in/hr0.0 mm/hr 0.00 in0.0 mm
02:40 AM 70.2°F21.2°C 66.8°F19.3°C 89% 0.3 mph WSW0.5 kmh WSW 2.6 mph4.2 kmh 29.95 in1014.2 mb 0.00 in0.0 mm 0.00 in/hr0.0 mm/hr 0.00 in0.0 mm
02:30 AM 70.3°F21.3°C 66.9°F19.4°C 89% 0.8 mph SW1.3 kmh SW 2.6 mph4.2 kmh 29.95 in1014.2 mb 0.00 in0.0 mm 0.00 in/hr0.0 mm/hr 0.00 in0.0 mm
02:20 AM 70.5°F21.4°C 67.1°F19.5°C 89% 1.3 mph S2.1 kmh S 2.6 mph4.2 kmh 29.95 in1014.2 mb 0.00 in0.0 mm 0.00 in/hr0.0 mm/hr 0.00 in0.0 mm
02:10 AM 70.6°F21.4°C 66.9°F19.4°C 88% 1.1 mph W1.8 kmh W 2.6 mph4.2 kmh 29.96 in1014.6 mb 0.00 in0.0 mm 0.00 in/hr0.0 mm/hr 0.00 in0.0 mm
02:00 AM 70.7°F21.5°C 66.9°F19.4°C 88% 1.5 mph S2.4 kmh S 2.6 mph4.2 kmh 29.96 in1014.6 mb 0.00 in0.0 mm 0.00 in/hr0.0 mm/hr 0.00 in0.0 mm
01:50 AM 70.7°F21.5°C 66.9°F19.4°C 88% 0.4 mph WSW0.6 kmh WSW 7.8 mph12.6 kmh 29.96 in1014.6 mb 0.00 in0.0 mm 0.00 in/hr0.0 mm/hr 0.00 in0.0 mm
01:40 AM 70.8°F21.6°C 67.0°F19.4°C 88% 0.2 mph SW0.3 kmh SW 1.3 mph2.1 kmh 29.97 in1014.9 mb 0.00 in0.0 mm 0.00 in/hr0.0 mm/hr 0.00 in0.0 mm
01:30 AM 71.1°F21.7°C 67.0°F19.4°C 87% 0.1 mph NE0.2 kmh NE 1.3 mph2.1 kmh 29.97 in1014.9 mb 0.00 in0.0 mm 0.00 in/hr0.0 mm/hr 0.00 in0.0 mm
01:20 AM 71.2°F21.8°C 67.1°F19.5°C 87% 1.6 mph S2.6 kmh S 5.2 mph8.4 kmh 29.97 in1014.9 mb 0.00 in0.0 mm 0.00 in/hr0.0 mm/hr 0.00 in0.0 mm
01:10 AM 71.3°F21.8°C 67.2°F19.6°C 87% 0.8 mph SSW1.3 kmh SSW 2.6 mph4.2 kmh 29.98 in1015.2 mb 0.00 in0.0 mm 0.00 in/hr0.0 mm/hr 0.00 in0.0 mm
01:00 AM 71.5°F21.9°C 67.5°F19.7°C 87% 0.4 mph SW0.6 kmh SW 1.3 mph2.1 kmh 29.97 in1014.9 mb 0.00 in0.0 mm 0.00 in/hr0.0 mm/hr 0.00 in0.0 mm
12:50 AM 71.6°F22.0°C 67.6°F19.8°C 87% 0.8 mph NW1.3 kmh NW 2.6 mph4.2 kmh 29.97 in1014.9 mb 0.00 in0.0 mm 0.00 in/hr0.0 mm/hr 0.00 in0.0 mm
12:40 AM 71.7°F22.1°C 67.6°F19.8°C 87% 1.8 mph S2.9 kmh S 3.9 mph6.3 kmh 29.98 in1015.2 mb 0.00 in0.0 mm 0.00 in/hr0.0 mm/hr 0.00 in0.0 mm
12:30 AM 72.0°F22.2°C 67.6°F19.8°C 86% 0.1 mph SE0.2 kmh SE -- 29.98 in1015.2 mb 0.00 in0.0 mm 0.00 in/hr0.0 mm/hr 0.00 in0.0 mm
12:20 AM 72.4°F22.4°C 68.0°F20.0°C 86% 2.0 mph S3.2 kmh S 3.9 mph6.3 kmh 29.98 in1015.2 mb 0.00 in0.0 mm 0.00 in/hr0.0 mm/hr 0.00 in0.0 mm
12:00 AM 72.8°F22.7°C 68.0°F20.0°C 85% 0.5 mph W0.8 kmh W 2.6 mph4.2 kmh 29.99 in1015.6 mb 0.00 in0.0 mm 0.00 in/hr0.0 mm/hr 0.00 in0.0 mm